createdAt,value
2022-09-04T00:00:08.761Z,11.37
2022-09-04T00:00:28.826Z,11.36
2022-09-04T00:00:48.910Z,11.36
2022-09-04T00:01:08.975Z,11.34
2022-09-04T00:01:29.053Z,11.37
2022-09-04T00:01:49.100Z,11.36
2022-09-04T00:02:09.161Z,11.36
2022-09-04T00:02:29.211Z,11.37
2022-09-04T00:02:49.287Z,11.37
2022-09-04T00:03:09.344Z,11.36
2022-09-04T00:03:29.416Z,11.36
2022-09-04T00:03:49.596Z,11.33
2022-09-04T00:04:09.708Z,11.32
2022-09-04T00:04:29.687Z,11.3
2022-09-04T00:04:49.826Z,11.3
2022-09-04T00:05:10.000Z,11.27
2022-09-04T00:05:29.776Z,11.26
2022-09-04T00:05:49.851Z,11.25
2022-09-04T00:06:09.937Z,11.25
2022-09-04T00:06:29.998Z,11.23
2022-09-04T00:06:50.043Z,11.23
2022-09-04T00:07:10.120Z,11.26
2022-09-04T00:07:30.178Z,11.23
2022-09-04T00:07:50.235Z,11.26
2022-09-04T00:08:10.298Z,11.26
2022-09-04T00:08:30.386Z,11.25
2022-09-04T00:08:50.438Z,11.25
2022-09-04T00:09:10.482Z,11.25
2022-09-04T00:09:30.555Z,11.26
2022-09-04T00:09:50.649Z,11.26
2022-09-04T00:10:10.703Z,11.23
2022-09-04T00:10:30.757Z,11.23
2022-09-04T00:10:50.811Z,11.23
2022-09-04T00:11:10.887Z,11.22
2022-09-04T00:11:30.926Z,11.21
2022-09-04T00:11:50.986Z,11.16
2022-09-04T00:12:11.083Z,11.16
2022-09-04T00:12:31.130Z,11.15
2022-09-04T00:12:51.195Z,11.13
2022-09-04T00:13:11.261Z,11.15
2022-09-04T00:13:31.365Z,11.11
2022-09-04T00:13:51.383Z,11.11
2022-09-04T00:14:11.500Z,11.12
2022-09-04T00:14:31.508Z,11.06
2022-09-04T00:14:51.582Z,11.08
2022-09-04T00:15:11.635Z,11.06
2022-09-04T00:15:31.705Z,11.08
2022-09-04T00:15:51.772Z,11.06
2022-09-04T00:16:11.875Z,11.05
2022-09-04T00:16:31.947Z,11.06
2022-09-04T00:16:52.087Z,11.05
2022-09-04T00:17:12.050Z,11.06
2022-09-04T00:17:32.073Z,11.04
2022-09-04T00:17:52.168Z,11.06
2022-09-04T00:18:12.205Z,11.05
2022-09-04T00:18:32.291Z,11.08
2022-09-04T00:18:52.334Z,11.08
2022-09-04T00:19:12.399Z,11.08
2022-09-04T00:19:32.479Z,11.09
2022-09-04T00:19:52.542Z,11.16
2022-09-04T00:20:12.601Z,11.15
2022-09-04T00:20:32.664Z,11.16
2022-09-04T00:20:52.716Z,11.18
2022-09-04T00:21:12.787Z,11.16
2022-09-04T00:21:32.879Z,11.15
2022-09-04T00:21:52.975Z,11.13
2022-09-04T00:22:12.996Z,11.13
2022-09-04T00:22:33.064Z,11.12
2022-09-04T00:22:53.106Z,11.12
2022-09-04T00:23:13.168Z,11.09
2022-09-04T00:23:33.242Z,11.11
2022-09-04T00:23:53.316Z,11.06
2022-09-04T00:24:13.353Z,11.09
2022-09-04T00:24:33.424Z,11.08
2022-09-04T00:24:53.516Z,11.06
2022-09-04T00:25:13.544Z,11.08
2022-09-04T00:25:33.610Z,11.09
2022-09-04T00:25:53.675Z,11.09
2022-09-04T00:26:13.745Z,11.09
2022-09-04T00:26:33.813Z,11.08
2022-09-04T00:26:53.878Z,11.06
2022-09-04T00:27:13.973Z,11.06
2022-09-04T00:27:36.067Z,11.05
2022-09-04T00:27:54.056Z,11.01
2022-09-04T00:28:14.146Z,11.02
2022-09-04T00:28:34.178Z,10.99
2022-09-04T00:28:54.268Z,10.99
2022-09-04T00:29:14.370Z,10.99
2022-09-04T00:29:34.366Z,10.99
2022-09-04T00:29:54.445Z,10.99
2022-09-04T00:30:14.498Z,10.99
2022-09-04T00:30:34.675Z,10.96
2022-09-04T00:30:54.711Z,10.96
2022-09-04T00:31:14.762Z,10.96
2022-09-04T00:31:34.792Z,10.96
2022-09-04T00:31:54.865Z,10.95
2022-09-04T00:32:14.912Z,10.96
2022-09-04T00:32:35.001Z,10.96
2022-09-04T00:32:55.045Z,10.95
2022-09-04T00:33:15.977Z,10.95
2022-09-04T00:33:35.151Z,10.92
2022-09-04T00:33:55.232Z,10.91
2022-09-04T00:34:15.272Z,10.88
2022-09-04T00:34:35.337Z,10.85
2022-09-04T00:34:55.416Z,10.86
2022-09-04T00:35:15.464Z,10.86
2022-09-04T00:35:35.546Z,10.85
2022-09-04T00:35:55.625Z,10.82
2022-09-04T00:36:15.670Z,10.84
2022-09-04T00:36:35.731Z,10.82
2022-09-04T00:36:55.799Z,10.84
2022-09-04T00:37:15.871Z,10.81
2022-09-04T00:37:35.934Z,10.82
2022-09-04T00:37:56.003Z,10.79
2022-09-04T00:38:16.072Z,10.79
2022-09-04T00:38:36.139Z,10.79
2022-09-04T00:38:56.207Z,10.78
2022-09-04T00:39:16.285Z,10.76
2022-09-04T00:39:36.357Z,10.78
2022-09-04T00:39:56.458Z,10.76
2022-09-04T00:40:16.434Z,10.74
2022-09-04T00:40:36.503Z,10.74
2022-09-04T00:40:56.579Z,10.72
2022-09-04T00:41:16.626Z,10.7
2022-09-04T00:41:36.684Z,10.68
2022-09-04T00:41:56.766Z,10.68
2022-09-04T00:42:16.789Z,10.67
2022-09-04T00:42:36.876Z,10.67
2022-09-04T00:42:56.936Z,10.64
2022-09-04T00:43:17.021Z,10.65
2022-09-04T00:43:37.038Z,10.64
2022-09-04T00:43:57.090Z,10.64
2022-09-04T00:44:17.130Z,10.64
2022-09-04T00:44:37.186Z,10.64
2022-09-04T00:44:57.264Z,10.64
2022-09-04T00:45:17.370Z,10.63
2022-09-04T00:45:37.474Z,10.65
2022-09-04T00:45:57.542Z,10.61
2022-09-04T00:46:17.594Z,10.63
2022-09-04T00:46:37.612Z,10.63
2022-09-04T00:46:57.656Z,10.61
2022-09-04T00:47:17.713Z,10.61
2022-09-04T00:47:37.800Z,10.58
2022-09-04T00:47:57.833Z,10.57
2022-09-04T00:48:18.035Z,10.58
2022-09-04T00:48:37.978Z,10.58
2022-09-04T00:48:58.014Z,10.6
2022-09-04T00:49:18.076Z,10.58
2022-09-04T00:49:38.133Z,10.6
2022-09-04T00:49:58.205Z,10.58
2022-09-04T00:50:18.253Z,10.61
2022-09-04T00:50:38.295Z,10.6
2022-09-04T00:50:58.388Z,10.6
2022-09-04T00:51:18.412Z,10.61
2022-09-04T00:51:38.479Z,10.6
2022-09-04T00:51:58.565Z,10.58
2022-09-04T00:52:18.631Z,10.58
2022-09-04T00:52:38.688Z,10.57
2022-09-04T00:52:59.435Z,10.58
2022-09-04T00:53:18.802Z,10.58
2022-09-04T00:53:38.851Z,10.6
2022-09-04T00:53:58.916Z,10.63
2022-09-04T00:54:18.971Z,10.63
2022-09-04T00:54:39.069Z,10.64
2022-09-04T00:54:59.086Z,10.64
2022-09-04T00:55:19.157Z,10.67
2022-09-04T00:55:39.213Z,10.65
2022-09-04T00:55:59.247Z,10.67
2022-09-04T00:56:19.321Z,10.65
2022-09-04T00:56:39.394Z,10.67
2022-09-04T00:56:59.450Z,10.65
2022-09-04T00:57:19.536Z,10.64
2022-09-04T00:57:39.579Z,10.63
2022-09-04T00:57:59.623Z,10.61
2022-09-04T00:58:19.715Z,10.61
2022-09-04T00:58:39.737Z,10.61
2022-09-04T00:58:59.806Z,10.6
2022-09-04T00:59:19.875Z,10.63
2022-09-04T00:59:39.926Z,10.61
2022-09-04T00:59:59.993Z,10.61
2022-09-04T01:00:20.036Z,10.61
2022-09-04T01:00:40.095Z,10.61
2022-09-04T01:01:00.371Z,10.61
2022-09-04T01:01:20.426Z,10.61
2022-09-04T01:01:40.636Z,10.6
2022-09-04T01:02:00.568Z,10.6
2022-09-04T01:02:20.480Z,10.61
2022-09-04T01:02:40.458Z,10.64
2022-09-04T01:03:00.530Z,10.61
2022-09-04T01:03:20.567Z,10.63
2022-09-04T01:03:40.668Z,10.64
2022-09-04T01:04:00.686Z,10.63
2022-09-04T01:04:20.771Z,10.63
2022-09-04T01:04:40.833Z,10.63
2022-09-04T01:05:00.893Z,10.63
2022-09-04T01:05:20.991Z,10.65
2022-09-04T01:05:41.004Z,10.65
2022-09-04T01:06:01.054Z,10.64
2022-09-04T01:06:21.122Z,10.6
2022-09-04T01:06:41.171Z,10.6
2022-09-04T01:07:01.234Z,10.6
2022-09-04T01:07:21.290Z,10.58
2022-09-04T01:07:41.351Z,10.56
2022-09-04T01:08:01.411Z,10.56
2022-09-04T01:08:21.540Z,10.54
2022-09-04T01:08:41.534Z,10.53
2022-09-04T01:09:01.567Z,10.51
2022-09-04T01:09:21.665Z,10.53
2022-09-04T01:09:41.730Z,10.51
2022-09-04T01:10:01.781Z,10.48
2022-09-04T01:10:21.827Z,10.47
2022-09-04T01:10:41.888Z,10.47
2022-09-04T01:11:02.003Z,10.47
2022-09-04T01:11:22.005Z,10.43
2022-09-04T01:11:42.064Z,10.44
2022-09-04T01:12:02.138Z,10.44
2022-09-04T01:12:22.178Z,10.44
2022-09-04T01:12:42.254Z,10.43
2022-09-04T01:13:02.300Z,10.46
2022-09-04T01:13:22.371Z,10.46
2022-09-04T01:13:42.446Z,10.46
2022-09-04T01:14:02.468Z,10.43
2022-09-04T01:14:22.532Z,10.44
2022-09-04T01:14:42.626Z,10.46
2022-09-04T01:15:02.664Z,10.44
2022-09-04T01:15:22.728Z,10.44
2022-09-04T01:15:42.783Z,10.44
2022-09-04T01:16:02.881Z,10.41
2022-09-04T01:16:22.961Z,10.41
2022-09-04T01:16:43.067Z,10.44
2022-09-04T01:17:03.035Z,10.46
2022-09-04T01:17:23.088Z,10.47
2022-09-04T01:17:43.165Z,10.5
2022-09-04T01:18:03.189Z,10.48
2022-09-04T01:18:23.336Z,10.46
2022-09-04T01:18:43.334Z,10.44
2022-09-04T01:19:03.418Z,10.44
2022-09-04T01:19:23.431Z,10.43
2022-09-04T01:19:43.502Z,10.4
2022-09-04T01:20:03.557Z,10.41
2022-09-04T01:20:23.642Z,10.41
2022-09-04T01:20:43.719Z,10.41
2022-09-04T01:21:03.770Z,10.4
2022-09-04T01:21:23.819Z,10.41
2022-09-04T01:21:43.878Z,10.4
2022-09-04T01:22:03.942Z,10.41
2022-09-04T01:22:23.991Z,10.43
2022-09-04T01:22:44.053Z,10.44
2022-09-04T01:23:04.088Z,10.4
2022-09-04T01:23:24.206Z,10.41
2022-09-04T01:23:44.242Z,10.4
2022-09-04T01:24:04.293Z,10.4
2022-09-04T01:24:24.370Z,10.39
2022-09-04T01:24:44.402Z,10.36
2022-09-04T01:25:04.465Z,10.37
2022-09-04T01:25:24.520Z,10.37
2022-09-04T01:25:44.595Z,10.39
2022-09-04T01:26:04.626Z,10.36
2022-09-04T01:26:24.717Z,10.36
2022-09-04T01:26:44.696Z,10.39
2022-09-04T01:27:04.739Z,10.4
2022-09-04T01:27:24.751Z,10.43
2022-09-04T01:27:44.781Z,10.39
2022-09-04T01:28:04.754Z,10.4
2022-09-04T01:28:24.937Z,10.41
2022-09-04T01:28:44.833Z,10.4
2022-09-04T01:29:04.849Z,10.44
2022-09-04T01:29:24.880Z,10.41
2022-09-04T01:29:44.879Z,10.41
2022-09-04T01:30:04.923Z,10.44
2022-09-04T01:30:24.938Z,10.46
2022-09-04T01:30:44.972Z,10.44
2022-09-04T01:31:05.012Z,10.46
2022-09-04T01:31:25.077Z,10.47
2022-09-04T01:31:45.110Z,10.44
2022-09-04T01:32:05.093Z,10.44
2022-09-04T01:32:25.102Z,10.43
2022-09-04T01:32:45.113Z,10.43
2022-09-04T01:33:05.195Z,10.4
2022-09-04T01:33:25.217Z,10.41
2022-09-04T01:33:45.250Z,10.39
2022-09-04T01:34:05.230Z,10.36
2022-09-04T01:34:25.301Z,10.35
2022-09-04T01:34:45.317Z,10.33
2022-09-04T01:35:05.315Z,10.33
2022-09-04T01:35:25.365Z,10.3
2022-09-04T01:35:45.404Z,10.27
2022-09-04T01:36:05.405Z,10.29
2022-09-04T01:36:25.431Z,10.29
2022-09-04T01:36:45.457Z,10.3
2022-09-04T01:37:05.490Z,10.24
2022-09-04T01:37:25.534Z,10.27
2022-09-04T01:37:45.547Z,10.27
2022-09-04T01:38:05.584Z,10.26
2022-09-04T01:38:25.839Z,10.26
2022-09-04T01:38:45.624Z,10.26
2022-09-04T01:39:05.670Z,10.26
2022-09-04T01:39:25.772Z,10.27
2022-09-04T01:39:45.894Z,10.3
2022-09-04T01:40:06.039Z,10.33
2022-09-04T01:40:35.789Z,10.3
2022-09-04T01:40:46.000Z,10.3
2022-09-04T01:41:06.042Z,10.3
2022-09-04T01:41:26.114Z,10.3
2022-09-04T01:41:46.169Z,10.32
2022-09-04T01:42:06.242Z,10.33
2022-09-04T01:42:26.297Z,10.33
2022-09-04T01:42:46.352Z,10.33
2022-09-04T01:43:06.418Z,10.32
2022-09-04T01:43:26.500Z,10.35
2022-09-04T01:43:46.585Z,10.35
2022-09-04T01:44:06.647Z,10.36
2022-09-04T01:44:26.680Z,10.33
2022-09-04T01:44:46.779Z,10.37
2022-09-04T01:45:06.823Z,10.36
2022-09-04T01:45:26.973Z,10.33
2022-09-04T01:45:47.011Z,10.35
2022-09-04T01:46:07.075Z,10.29
2022-09-04T01:46:27.065Z,10.3
2022-09-04T01:46:47.185Z,10.24
2022-09-04T01:47:07.195Z,10.27
2022-09-04T01:47:27.288Z,10.23
2022-09-04T01:47:47.327Z,10.21
2022-09-04T01:48:07.393Z,10.2
2022-09-04T01:48:27.458Z,10.21
2022-09-04T01:48:47.534Z,10.19
2022-09-04T01:49:07.586Z,10.2
2022-09-04T01:49:27.647Z,10.19
2022-09-04T01:49:47.733Z,10.19
2022-09-04T01:50:07.776Z,10.21
2022-09-04T01:50:27.841Z,10.2
2022-09-04T01:50:47.888Z,10.2
2022-09-04T01:51:07.976Z,10.21
2022-09-04T01:51:28.047Z,10.21
2022-09-04T01:51:48.099Z,10.23
2022-09-04T01:52:08.161Z,10.2
2022-09-04T01:52:28.215Z,10.21
2022-09-04T01:52:48.275Z,10.2
2022-09-04T01:53:08.358Z,10.2
2022-09-04T01:53:28.413Z,10.17
2022-09-04T01:53:48.459Z,10.13
2022-09-04T01:54:08.537Z,10.16
2022-09-04T01:54:28.626Z,10.12
2022-09-04T01:54:48.672Z,10.14
2022-09-04T01:55:08.756Z,10.13
2022-09-04T01:55:28.799Z,10.16
2022-09-04T01:55:48.880Z,10.13
2022-09-04T01:56:08.924Z,10.14
2022-09-04T01:56:28.983Z,10.12
2022-09-04T01:56:49.089Z,10.12
2022-09-04T01:57:09.112Z,10.12
2022-09-04T01:57:29.199Z,10.1
2022-09-04T01:57:49.241Z,10.07
2022-09-04T01:58:09.298Z,10.12
2022-09-04T01:58:29.382Z,10.12
2022-09-04T01:58:49.434Z,10.12
2022-09-04T01:59:09.499Z,10.1
2022-09-04T01:59:29.581Z,10.09
2022-09-04T01:59:53.462Z,10.09
2022-09-04T02:00:09.704Z,10.07
2022-09-04T02:00:29.774Z,10.05
2022-09-04T02:00:49.870Z,10.05
2022-09-04T02:01:09.950Z,10.03
2022-09-04T02:01:30.031Z,10.07
2022-09-04T02:01:50.097Z,10.06
2022-09-04T02:02:10.126Z,10.05
2022-09-04T02:02:52.116Z,10.06
2022-09-04T02:03:45.396Z,10.07
2022-09-04T02:03:50.407Z,10.05
2022-09-04T02:04:10.465Z,10.03
2022-09-04T02:04:30.497Z,10.05
2022-09-04T02:04:50.540Z,10.05
2022-09-04T02:05:10.596Z,10.02
2022-09-04T02:05:30.618Z,10.02
2022-09-04T02:05:50.682Z,10.02
2022-09-04T02:06:10.732Z,10
2022-09-04T02:06:30.771Z,10.02
2022-09-04T02:06:50.812Z,9.99
2022-09-04T02:07:10.872Z,9.98
2022-09-04T02:07:30.993Z,9.96
2022-09-04T02:07:50.952Z,9.98
2022-09-04T02:08:10.999Z,9.96
2022-09-04T02:08:31.047Z,9.95
2022-09-04T02:08:51.119Z,9.92
2022-09-04T02:09:11.180Z,9.93
2022-09-04T02:09:31.193Z,9.9
2022-09-04T02:09:53.922Z,9.88
2022-09-04T02:10:11.285Z,9.88
2022-09-04T02:10:31.306Z,9.88
2022-09-04T02:10:51.334Z,9.86
2022-09-04T02:11:11.370Z,9.85
2022-09-04T02:11:31.392Z,9.86
2022-09-04T02:11:51.434Z,9.89
2022-09-04T02:12:11.465Z,9.86
2022-09-04T02:12:31.519Z,9.88
2022-09-04T02:12:51.509Z,9.86
2022-09-04T02:13:11.543Z,9.89
2022-09-04T02:13:31.551Z,9.88
2022-09-04T02:13:51.577Z,9.89
2022-09-04T02:15:06.743Z,9.9
2022-09-04T02:15:11.707Z,9.88
2022-09-04T02:15:31.708Z,9.9
2022-09-04T02:15:51.762Z,9.86
2022-09-04T02:16:11.830Z,9.88
2022-09-04T02:16:31.907Z,9.89
2022-09-04T02:16:51.904Z,9.9
2022-09-04T02:17:11.949Z,9.89
2022-09-04T02:17:31.996Z,9.9
2022-09-04T02:17:52.036Z,9.88
2022-09-04T02:18:12.081Z,9.88
2022-09-04T02:18:32.130Z,9.86
2022-09-04T02:18:52.144Z,9.88
2022-09-04T02:19:12.237Z,9.85
2022-09-04T02:19:32.265Z,9.86
2022-09-04T02:19:52.339Z,9.84
2022-09-04T02:20:12.392Z,9.84
2022-09-04T02:20:32.450Z,9.82
2022-09-04T02:20:52.512Z,9.81
2022-09-04T02:21:12.574Z,9.78
2022-09-04T02:21:32.614Z,9.79
2022-09-04T02:21:52.688Z,9.78
2022-09-04T02:22:12.766Z,9.79
2022-09-04T02:22:32.812Z,9.81
2022-09-04T02:22:52.871Z,9.82
2022-09-04T02:23:12.951Z,9.81
2022-09-04T02:23:32.982Z,9.82
2022-09-04T02:23:53.060Z,9.82
2022-09-04T02:24:13.102Z,9.84
2022-09-04T02:24:33.183Z,9.85
2022-09-04T02:24:53.228Z,9.82
2022-09-04T02:25:13.304Z,9.82
2022-09-04T02:25:33.345Z,9.79
2022-09-04T02:25:53.408Z,9.79
2022-09-04T02:26:13.475Z,9.78
2022-09-04T02:26:33.528Z,9.77
2022-09-04T02:26:53.611Z,9.77
2022-09-04T02:27:13.638Z,9.77
2022-09-04T02:27:33.710Z,9.77
2022-09-04T02:27:53.786Z,9.75
2022-09-04T02:28:13.827Z,9.74
2022-09-04T02:28:33.907Z,9.77
2022-09-04T02:28:53.940Z,9.75
2022-09-04T02:29:14.023Z,9.78
2022-09-04T02:29:34.091Z,9.74
2022-09-04T02:29:54.112Z,9.74
2022-09-04T02:30:14.193Z,9.77
2022-09-04T02:30:34.245Z,9.78
2022-09-04T02:30:54.722Z,9.77
2022-09-04T02:31:14.436Z,9.77
2022-09-04T02:31:34.527Z,9.75
2022-09-04T02:31:54.572Z,9.77
2022-09-04T02:32:14.553Z,9.77
2022-09-04T02:32:34.635Z,9.75
2022-09-04T02:32:54.669Z,9.74
2022-09-04T02:33:14.727Z,9.77
2022-09-04T02:33:34.775Z,9.78
2022-09-04T02:33:54.846Z,9.77
2022-09-04T02:34:14.921Z,9.77
2022-09-04T02:34:34.974Z,9.75
2022-09-04T02:34:55.045Z,9.75
2022-09-04T02:35:15.082Z,9.72
2022-09-04T02:35:35.132Z,9.71
2022-09-04T02:35:55.233Z,9.72
2022-09-04T02:36:15.252Z,9.74
2022-09-04T02:36:35.340Z,9.68
2022-09-04T02:36:55.383Z,9.71
2022-09-04T02:37:15.434Z,9.69
2022-09-04T02:37:35.506Z,9.66
2022-09-04T02:37:55.601Z,9.66
2022-09-04T02:38:15.624Z,9.65
2022-09-04T02:38:35.681Z,9.65
2022-09-04T02:38:55.744Z,9.62
2022-09-04T02:39:15.810Z,9.62
2022-09-04T02:39:35.955Z,9.61
2022-09-04T02:39:56.013Z,9.63
2022-09-04T02:40:15.988Z,9.62
2022-09-04T02:40:36.045Z,9.59
2022-09-04T02:40:56.089Z,9.61
2022-09-04T02:41:16.182Z,9.61
2022-09-04T02:41:36.248Z,9.62
2022-09-04T02:41:56.306Z,9.63
2022-09-04T02:42:16.358Z,9.62
2022-09-04T02:42:36.401Z,9.63
2022-09-04T02:42:56.456Z,9.63
2022-09-04T02:43:16.542Z,9.63
2022-09-04T02:43:36.598Z,9.66
2022-09-04T02:43:56.649Z,9.65
2022-09-04T02:44:16.696Z,9.63
2022-09-04T02:44:36.782Z,9.63
2022-09-04T02:44:56.819Z,9.63
2022-09-04T02:45:16.884Z,9.61
2022-09-04T02:45:36.966Z,9.63
2022-09-04T02:45:57.007Z,9.62
2022-09-04T02:46:17.115Z,9.65
2022-09-04T02:46:41.193Z,9.65
2022-09-04T02:46:57.273Z,9.65
2022-09-04T02:47:17.239Z,9.65
2022-09-04T02:47:37.318Z,9.65
2022-09-04T02:47:57.365Z,9.69
2022-09-04T02:48:17.544Z,9.65
2022-09-04T02:48:37.499Z,9.66
2022-09-04T02:48:57.547Z,9.65
2022-09-04T02:49:17.599Z,9.62
2022-09-04T02:49:37.671Z,9.63
2022-09-04T02:49:57.734Z,9.62
2022-09-04T02:50:17.791Z,9.62
2022-09-04T02:50:37.879Z,9.62
2022-09-04T02:50:57.917Z,9.63
2022-09-04T02:51:17.981Z,9.61
2022-09-04T02:51:38.053Z,9.61
2022-09-04T02:51:58.085Z,9.58
2022-09-04T02:52:18.149Z,9.57
2022-09-04T02:52:38.204Z,9.57
2022-09-04T02:52:58.307Z,9.58
2022-09-04T02:53:18.573Z,9.54
2022-09-04T02:53:38.384Z,9.58
2022-09-04T02:53:58.462Z,9.57
2022-09-04T02:54:18.509Z,9.55
2022-09-04T02:54:38.559Z,9.52
2022-09-04T02:54:58.617Z,9.54
2022-09-04T02:55:18.683Z,9.52
2022-09-04T02:55:38.746Z,9.5
2022-09-04T02:55:58.801Z,9.5
2022-09-04T02:56:18.875Z,9.48
2022-09-04T02:56:38.917Z,9.47
2022-09-04T02:56:58.979Z,9.48
2022-09-04T02:57:19.063Z,9.45
2022-09-04T02:57:39.113Z,9.48
2022-09-04T02:57:59.183Z,9.45
2022-09-04T02:58:19.210Z,9.44
2022-09-04T02:58:39.270Z,9.47
2022-09-04T02:58:59.375Z,9.47
2022-09-04T02:59:19.393Z,9.5
2022-09-04T02:59:39.454Z,9.47
2022-09-04T02:59:59.521Z,9.48
2022-09-04T03:00:21.366Z,9.44
2022-09-04T03:00:39.698Z,9.47
2022-09-04T03:00:59.749Z,9.47
2022-09-04T03:01:19.846Z,9.47
2022-09-04T03:01:39.847Z,9.44
2022-09-04T03:01:59.939Z,9.45
2022-09-04T03:02:19.984Z,9.45
2022-09-04T03:02:40.020Z,9.44
2022-09-04T03:03:00.045Z,9.45
2022-09-04T03:03:20.109Z,9.42
2022-09-04T03:03:40.184Z,9.44
2022-09-04T03:04:00.260Z,9.42
2022-09-04T03:04:20.309Z,9.41
2022-09-04T03:04:40.358Z,9.41
2022-09-04T03:05:00.436Z,9.44
2022-09-04T03:05:20.465Z,9.45
2022-09-04T03:05:40.540Z,9.47
2022-09-04T03:06:00.617Z,9.45
2022-09-04T03:06:20.658Z,9.47
2022-09-04T03:06:40.725Z,9.47
2022-09-04T03:07:00.785Z,9.51
2022-09-04T03:07:20.867Z,9.48
2022-09-04T03:07:40.911Z,9.5
2022-09-04T03:08:00.959Z,9.51
2022-09-04T03:08:21.039Z,9.5
2022-09-04T03:08:41.088Z,9.52
2022-09-04T03:09:01.154Z,9.52
2022-09-04T03:09:21.200Z,9.52
2022-09-04T03:09:41.287Z,9.52
2022-09-04T03:10:01.330Z,9.51
2022-09-04T03:10:21.394Z,9.51
2022-09-04T03:10:41.438Z,9.51
2022-09-04T03:11:01.553Z,9.51
2022-09-04T03:11:21.559Z,9.51
2022-09-04T03:11:41.627Z,9.48
2022-09-04T03:12:01.678Z,9.45
2022-09-04T03:12:21.742Z,9.45
2022-09-04T03:12:41.811Z,9.44
2022-09-04T03:13:01.852Z,9.41
2022-09-04T03:13:21.929Z,9.4
2022-09-04T03:13:41.966Z,9.37
2022-09-04T03:14:02.030Z,9.37
2022-09-04T03:14:22.126Z,9.37
2022-09-04T03:14:42.187Z,9.33
2022-09-04T03:15:02.209Z,9.35
2022-09-04T03:15:22.279Z,9.33
2022-09-04T03:15:42.348Z,9.34
2022-09-04T03:16:02.417Z,9.31
2022-09-04T03:16:22.500Z,9.33
2022-09-04T03:16:42.553Z,9.33
2022-09-04T03:17:02.582Z,9.34
2022-09-04T03:17:22.645Z,9.35
2022-09-04T03:17:42.729Z,9.35
2022-09-04T03:18:02.782Z,9.38
2022-09-04T03:18:22.831Z,9.4
2022-09-04T03:18:42.873Z,9.38
2022-09-04T03:19:02.958Z,9.37
2022-09-04T03:19:23.003Z,9.4
2022-09-04T03:19:43.048Z,9.4
2022-09-04T03:20:03.138Z,9.37
2022-09-04T03:20:23.165Z,9.37
2022-09-04T03:20:43.238Z,9.35
2022-09-04T03:21:03.340Z,9.35
2022-09-04T03:21:23.371Z,9.37
2022-09-04T03:21:43.450Z,9.37
2022-09-04T03:22:03.479Z,9.35
2022-09-04T03:22:23.533Z,9.4
2022-09-04T03:22:43.571Z,9.38
2022-09-04T03:23:03.655Z,9.37
2022-09-04T03:23:23.711Z,9.38
2022-09-04T03:23:43.770Z,9.38
2022-09-04T03:24:03.842Z,9.37
2022-09-04T03:24:23.904Z,9.35
2022-09-04T03:24:43.981Z,9.38
2022-09-04T03:25:04.043Z,9.38
2022-09-04T03:25:24.071Z,9.37
2022-09-04T03:25:44.127Z,9.37
2022-09-04T03:26:04.183Z,9.33
2022-09-04T03:26:24.258Z,9.34
2022-09-04T03:26:44.337Z,9.31
2022-09-04T03:27:04.386Z,9.31
2022-09-04T03:27:24.463Z,9.31
2022-09-04T03:27:44.488Z,9.29
2022-09-04T03:28:04.542Z,9.27
2022-09-04T03:28:24.658Z,9.3
2022-09-04T03:28:44.676Z,9.29
2022-09-04T03:29:04.731Z,9.3
2022-09-04T03:29:24.796Z,9.27
2022-09-04T03:29:44.851Z,9.26
2022-09-04T03:30:04.905Z,9.26
2022-09-04T03:30:24.953Z,9.26
2022-09-04T03:30:45.027Z,9.21
2022-09-04T03:31:05.151Z,9.23
2022-09-04T03:31:25.209Z,9.21
2022-09-04T03:31:45.308Z,9.2
2022-09-04T03:32:15.545Z,9.2
2022-09-04T03:32:25.334Z,9.2
2022-09-04T03:32:45.393Z,9.19
2022-09-04T03:33:05.434Z,9.19
2022-09-04T03:33:25.463Z,9.19
2022-09-04T03:33:45.518Z,9.19
2022-09-04T03:34:05.594Z,9.16
2022-09-04T03:34:25.633Z,9.2
2022-09-04T03:34:45.714Z,9.2
2022-09-04T03:35:05.769Z,9.19
2022-09-04T03:35:25.839Z,9.17
2022-09-04T03:35:45.893Z,9.17
2022-09-04T03:36:05.945Z,9.17
2022-09-04T03:36:26.030Z,9.2
2022-09-04T03:36:46.089Z,9.14
2022-09-04T03:37:06.138Z,9.16
2022-09-04T03:37:26.210Z,9.14
2022-09-04T03:37:46.280Z,9.14
2022-09-04T03:38:06.340Z,9.16
2022-09-04T03:38:26.413Z,9.17
2022-09-04T03:38:46.449Z,9.19
2022-09-04T03:39:06.500Z,9.2
2022-09-04T03:39:26.657Z,9.16
2022-09-04T03:39:46.697Z,9.17
2022-09-04T03:40:06.724Z,9.17
2022-09-04T03:40:26.766Z,9.16
2022-09-04T03:40:46.864Z,9.14
2022-09-04T03:41:06.903Z,9.16
2022-09-04T03:41:26.973Z,9.11
2022-09-04T03:41:47.005Z,9.13
2022-09-04T03:42:07.091Z,9.14
2022-09-04T03:42:27.166Z,9.14
2022-09-04T03:42:47.198Z,9.16
2022-09-04T03:43:07.232Z,9.14
2022-09-04T03:43:27.317Z,9.13
2022-09-04T03:43:47.375Z,9.11
2022-09-04T03:44:07.479Z,9.11
2022-09-04T03:44:27.539Z,9.13
2022-09-04T03:44:47.565Z,9.13
2022-09-04T03:45:07.619Z,9.16
2022-09-04T03:45:27.655Z,9.13
2022-09-04T03:45:47.755Z,9.11
2022-09-04T03:46:07.901Z,9.17
2022-09-04T03:46:27.924Z,9.16
2022-09-04T03:46:48.076Z,9.16
2022-09-04T03:47:07.981Z,9.14
2022-09-04T03:47:28.068Z,9.11
2022-09-04T03:47:48.106Z,9.11
2022-09-04T03:48:08.153Z,9.1
2022-09-04T03:48:28.197Z,9.1
2022-09-04T03:48:48.268Z,9.07
2022-09-04T03:49:08.331Z,9.07
2022-09-04T03:49:28.394Z,9.07
2022-09-04T03:49:48.441Z,9.06
2022-09-04T03:50:08.520Z,9.07
2022-09-04T03:50:28.593Z,9.04
2022-09-04T03:50:48.657Z,9.04
2022-09-04T03:51:08.681Z,9.04
2022-09-04T03:51:28.751Z,9.07
2022-09-04T03:51:49.675Z,9.07
2022-09-04T03:52:08.886Z,9.07
2022-09-04T03:52:28.947Z,9.1
2022-09-04T03:52:49.005Z,9.1
2022-09-04T03:53:09.044Z,9.11
2022-09-04T03:53:29.130Z,9.11
2022-09-04T03:53:49.183Z,9.1
2022-09-04T03:54:09.230Z,9.09
2022-09-04T03:54:29.298Z,9.1
2022-09-04T03:54:49.358Z,9.07
2022-09-04T03:55:09.405Z,9.09
2022-09-04T03:55:29.446Z,9.09
2022-09-04T03:55:49.507Z,9.07
2022-09-04T03:56:09.589Z,9.06
2022-09-04T03:56:29.652Z,9.07
2022-09-04T03:56:49.713Z,9.04
2022-09-04T03:57:09.758Z,9.03
2022-09-04T03:57:29.818Z,9.04
2022-09-04T03:57:49.875Z,9.02
2022-09-04T03:58:09.945Z,9.03
2022-09-04T03:58:29.989Z,9.03
2022-09-04T03:58:50.060Z,9
2022-09-04T03:59:10.139Z,9
2022-09-04T03:59:30.175Z,9
2022-09-04T03:59:50.248Z,8.96
2022-09-04T04:00:10.308Z,8.99
2022-09-04T04:00:30.383Z,9
2022-09-04T04:00:50.440Z,8.99
2022-09-04T04:01:10.551Z,8.98
2022-09-04T04:01:30.589Z,8.98
2022-09-04T04:01:50.585Z,8.98
2022-09-04T04:02:10.652Z,8.96
2022-09-04T04:02:30.797Z,8.96
2022-09-04T04:02:50.954Z,8.94
2022-09-04T04:03:10.947Z,8.96
2022-09-04T04:03:30.894Z,8.96
2022-09-04T04:03:50.952Z,8.94
2022-09-04T04:04:11.019Z,8.96
2022-09-04T04:04:31.077Z,8.98
2022-09-04T04:04:51.120Z,8.98
2022-09-04T04:05:11.189Z,8.98
2022-09-04T04:05:31.271Z,8.99
2022-09-04T04:05:51.324Z,9
2022-09-04T04:06:11.378Z,9
2022-09-04T04:06:31.439Z,9.02
2022-09-04T04:06:51.474Z,9.02
2022-09-04T04:07:11.558Z,9
2022-09-04T04:07:31.606Z,9
2022-09-04T04:07:51.668Z,9.02
2022-09-04T04:08:11.724Z,9
2022-09-04T04:08:31.805Z,9
2022-09-04T04:08:51.825Z,8.99
2022-09-04T04:09:11.966Z,8.99
2022-09-04T04:09:31.966Z,8.99
2022-09-04T04:09:52.072Z,8.99
2022-09-04T04:10:12.076Z,8.99
2022-09-04T04:10:32.152Z,8.99
2022-09-04T04:10:52.196Z,9
2022-09-04T04:11:12.265Z,8.98
2022-09-04T04:11:32.318Z,8.99
2022-09-04T04:11:52.385Z,8.98
2022-09-04T04:12:12.439Z,8.98
2022-09-04T04:12:32.486Z,8.99
2022-09-04T04:12:52.565Z,9.02
2022-09-04T04:13:12.632Z,9
2022-09-04T04:13:32.683Z,9
2022-09-04T04:13:52.751Z,9.02
2022-09-04T04:14:12.817Z,9.03
2022-09-04T04:14:32.861Z,9.04
2022-09-04T04:14:52.941Z,9.06
2022-09-04T04:15:12.980Z,9.06
2022-09-04T04:15:33.069Z,9.06
2022-09-04T04:15:53.150Z,9.04
2022-09-04T04:16:13.270Z,9.02
2022-09-04T04:16:33.333Z,9.06
2022-09-04T04:16:56.073Z,9.06
2022-09-04T04:17:16.562Z,9.07
2022-09-04T04:17:33.407Z,9.04
2022-09-04T04:17:53.463Z,9.04
2022-09-04T04:18:13.563Z,9.06
2022-09-04T04:18:33.571Z,9.03
2022-09-04T04:18:53.641Z,9.02
2022-09-04T04:19:13.743Z,9.02
2022-09-04T04:19:33.755Z,9.04
2022-09-04T04:19:53.816Z,9.03
2022-09-04T04:20:13.877Z,9.02
2022-09-04T04:20:33.962Z,9.03
2022-09-04T04:20:54.001Z,9.02
2022-09-04T04:21:14.064Z,9.04
2022-09-04T04:21:34.128Z,9.03
2022-09-04T04:21:54.196Z,9.04
2022-09-04T04:22:14.258Z,9.07
2022-09-04T04:22:34.293Z,9.06
2022-09-04T04:22:54.360Z,9.06
2022-09-04T04:23:14.421Z,9.06
2022-09-04T04:23:34.489Z,9.04
2022-09-04T04:23:54.540Z,9.03
2022-09-04T04:24:14.594Z,9.06
2022-09-04T04:24:34.672Z,9.06
2022-09-04T04:24:54.724Z,9.06
2022-09-04T04:25:14.789Z,9.02